aviador You're here:

LEVC Decoded Metar

VALENCIA in SPAIN
Report Time2015-01-28 09:00:00
UTC Time2015-01-28 09:08:19
Flight Rules vfr VFR
Wind250° at 08 kt
W.Decomp.*RWY 30: 5.2 kt HW 6 kt LCW
W.Rank250° ranks 2
Current wind is below 250° avg. (8.8)
Visibility9999 m
Phenomena:N/A
Clouds:N/A
Expected CloudBase > 3,600 ft AGL from Temp-Dew spread
CeilingNone
Temp10°C (ISA -5)
Dew Point01°C (54% RH)
AAT5.3°C
QNH1023 hPa
Density Alt-594 ft
Elevation203 ft
Report Wrong Elevation
Raw Report
METAR LEVC 280900Z 25008KT CAVOK 10/01 Q1023 NOSIG=

Extra information for LEVC:More info

Metar Taf Metar & Taf Last 4 Metars F.Rules Stats Wind Profile Meteogram Temp Stats Airport Information Weather charts Add Link Nearby VenuesMetar ALERT Operation Metar Decoded Social comments

Webcam Valencia